Kazime Ana — TCPT8 — position and weather

sailwx.info

Track history (hours):
 
Tides and Currents Weather Stations Pressure Air Temp Water Temp Dewpoint Dewpoint Depression Visibility Wind Speed Wind Dir Waves Ship Positions

Kazime Ana

Last reported at 2018-Jan-20 16:05 UTC. Time now 2018-Jan-21 16:57 UTC.
Position N 37°20' E 026°52'.

Length 115 m; draft 6.3 m.

Type: Cargo ship. MMSI: 271001019.

Date/timePositionNaut miles runAvg speedWind from/ knotsBaromVisibWave heightAir tempDewpointWater temp
2018-Jan-20 16:05N 37°20' E 026°52'110.6
2018-Jan-20 15:59N 37°21' E 026°51'510.3
2018-Jan-20 15:29N 37°25' E 026°47'1410.0
2018-Jan-20 14:03N 37°36' E 026°37'1 9.8
2018-Jan-20 13:58N 37°37' E 026°36'12 9.6
2018-Jan-20 12:44N 37°47' E 026°29'2 9.6
2018-Jan-20 12:30N 37°49' E 026°28'5 9.9
2018-Jan-20 12:00N 37°54' E 026°25'218 7.5
2018-Jan-19 06:45N 40°58' E 028°56'0 0.0
2018-Jan-18 12:10N 40°59' E 028°56'2 4.6
2018-Jan-18 11:46N 40°59' E 028°58'  
Track history (hours):
 
Tides and Currents Weather Stations Pressure Air Temp Water Temp Dewpoint Dewpoint Depression Visibility Wind Speed Wind Dir Waves Ship Positions

Kazime Ana

Last reported at 2018-Jan-20 16:05 UTC. Time now 2018-Jan-21 16:57 UTC.
Position N 37°20' E 026°52'.

Length 115 m; draft 6.3 m.

Type: Cargo ship. MMSI: 271001019.

Date/timePositionNaut miles runAvg speedWind from/ knotsBaromVisibWave heightAir tempDewpointWater temp
2018-Jan-20 16:05N 37°20' E 026°52'110.6
2018-Jan-20 15:59N 37°21' E 026°51'510.3
2018-Jan-20 15:29N 37°25' E 026°47'1410.0
2018-Jan-20 14:03N 37°36' E 026°37'1 9.8
2018-Jan-20 13:58N 37°37' E 026°36'12 9.6
2018-Jan-20 12:44N 37°47' E 026°29'2 9.6
2018-Jan-20 12:30N 37°49' E 026°28'5 9.9
2018-Jan-20 12:00N 37°54' E 026°25'218 7.5
2018-Jan-19 06:45N 40°58' E 028°56'0 0.0
2018-Jan-18 12:10N 40°59' E 028°56'2 4.6
2018-Jan-18 11:46N 40°59' E 028°58'  

Dump ship's entire track history